Terminal Aerodrome Forecast
Issued by NWS

Home | Current Version | Previous Version | Graphics & Text | Print | Product List | Glossary On
Versions: 1 2 3 4 5 6 7 8 9 10 11 12 13 14 15 16 17
000
FTUS43 KICT 162320
TAFSLN
TAF
KSLN 162320Z 1700/1724 16012KT P6SM FEW250
     FM170500 17013G21KT P6SM BKN015
     FM170700 17014KT P6SM OVC008
     FM171300 20013G21KT P6SM BKN025
     FM172200 20008KT P6SM SCT250=

USA.gov is the U.S. government's official web portal to all federal, state and local government web resources and services.